sensor_id;sensor_type;location;lat;lon;timestamp;P1;durP1;ratioP1;P2;durP2;ratioP2
61553;SDS011;47425;51.976;5.326;2023-07-29T00:00:24;4.07;;;2.15;;
61553;SDS011;47425;51.976;5.326;2023-07-29T00:02:51;6.60;;;2.22;;
61553;SDS011;47425;51.976;5.326;2023-07-29T00:05:18;1.92;;;1.42;;
61553;SDS011;47425;51.976;5.326;2023-07-29T00:07:48;1.60;;;1.30;;
61553;SDS011;47425;51.976;5.326;2023-07-29T00:10:16;1.27;;;0.95;;
61553;SDS011;47425;51.976;5.326;2023-07-29T00:12:45;2.30;;;1.13;;
61553;SDS011;47425;51.976;5.326;2023-07-29T00:15:11;2.38;;;1.38;;
61553;SDS011;47425;51.976;5.326;2023-07-29T00:17:38;3.20;;;2.13;;
61553;SDS011;47425;51.976;5.326;2023-07-29T00:20:07;1.60;;;1.30;;
61553;SDS011;47425;51.976;5.326;2023-07-29T00:22:34;2.08;;;1.17;;
61553;SDS011;47425;51.976;5.326;2023-07-29T00:25:08;2.42;;;0.98;;
61553;SDS011;47425;51.976;5.326;2023-07-29T00:27:36;0.75;;;0.75;;
61553;SDS011;47425;51.976;5.326;2023-07-29T00:30:05;1.92;;;1.35;;
61553;SDS011;47425;51.976;5.326;2023-07-29T00:32:35;3.63;;;1.70;;
61553;SDS011;47425;51.976;5.326;2023-07-29T00:35:01;1.30;;;1.13;;
61553;SDS011;47425;51.976;5.326;2023-07-29T00:37:30;2.70;;;1.50;;
61553;SDS011;47425;51.976;5.326;2023-07-29T00:39:56;2.00;;;1.10;;
61553;SDS011;47425;51.976;5.326;2023-07-29T00:42:27;0.82;;;0.82;;
61553;SDS011;47425;51.976;5.326;2023-07-29T00:44:59;0.90;;;0.90;;
61553;SDS011;47425;51.976;5.326;2023-07-29T00:47:35;1.85;;;1.17;;
61553;SDS011;47425;51.976;5.326;2023-07-29T00:50:01;2.30;;;1.65;;
61553;SDS011;47425;51.976;5.326;2023-07-29T00:52:30;2.78;;;1.02;;
61553;SDS011;47425;51.976;5.326;2023-07-29T00:54:57;1.30;;;1.20;;
61553;SDS011;47425;51.976;5.326;2023-07-29T00:57:27;2.15;;;0.90;;
61553;SDS011;47425;51.976;5.326;2023-07-29T00:59:55;2.13;;;1.98;;
61553;SDS011;47425;51.976;5.326;2023-07-29T01:02:22;1.88;;;0.90;;
61553;SDS011;47425;51.976;5.326;2023-07-29T01:04:51;3.92;;;1.00;;
61553;SDS011;47425;51.976;5.326;2023-07-29T01:07:20;3.38;;;2.25;;
61553;SDS011;47425;51.976;5.326;2023-07-29T01:09:54;1.25;;;1.00;;
61553;SDS011;47425;51.976;5.326;2023-07-29T01:12:24;1.70;;;1.10;;
61553;SDS011;47425;51.976;5.326;2023-07-29T01:15:01;1.10;;;1.00;;
61553;SDS011;47425;51.976;5.326;2023-07-29T01:17:42;1.73;;;1.23;;
61553;SDS011;47425;51.976;5.326;2023-07-29T01:20:14;2.70;;;1.35;;
61553;SDS011;47425;51.976;5.326;2023-07-29T01:22:44;3.75;;;2.45;;
61553;SDS011;47425;51.976;5.326;2023-07-29T01:25:16;2.65;;;1.45;;
61553;SDS011;47425;51.976;5.326;2023-07-29T01:27:45;1.67;;;0.80;;
61553;SDS011;47425;51.976;5.326;2023-07-29T01:30:13;1.25;;;1.15;;
61553;SDS011;47425;51.976;5.326;2023-07-29T01:32:41;2.70;;;1.38;;
61553;SDS011;47425;51.976;5.326;2023-07-29T01:35:27;6.90;;;4.13;;
61553;SDS011;47425;51.976;5.326;2023-07-29T01:37:59;5.00;;;2.55;;
61553;SDS011;47425;51.976;5.326;2023-07-29T01:40:33;1.80;;;1.00;;
61553;SDS011;47425;51.976;5.326;2023-07-29T01:43:04;2.40;;;1.45;;
61553;SDS011;47425;51.976;5.326;2023-07-29T01:45:35;8.35;;;3.92;;
61553;SDS011;47425;51.976;5.326;2023-07-29T01:48:06;6.30;;;4.50;;
61553;SDS011;47425;51.976;5.326;2023-07-29T01:50:34;8.18;;;3.85;;
61553;SDS011;47425;51.976;5.326;2023-07-29T01:53:01;3.40;;;2.15;;
61553;SDS011;47425;51.976;5.326;2023-07-29T01:55:30;4.43;;;3.20;;
61553;SDS011;47425;51.976;5.326;2023-07-29T01:58:02;3.80;;;1.98;;
61553;SDS011;47425;51.976;5.326;2023-07-29T02:03:06;2.17;;;1.75;;
61553;SDS011;47425;51.976;5.326;2023-07-29T02:05:32;2.30;;;1.27;;
61553;SDS011;47425;51.976;5.326;2023-07-29T02:07:59;4.22;;;2.15;;
61553;SDS011;47425;51.976;5.326;2023-07-29T02:10:27;4.47;;;2.00;;
61553;SDS011;47425;51.976;5.326;2023-07-29T02:12:54;2.55;;;1.30;;
61553;SDS011;47425;51.976;5.326;2023-07-29T02:15:22;4.43;;;1.98;;
61553;SDS011;47425;51.976;5.326;2023-07-29T02:17:53;3.83;;;1.92;;
61553;SDS011;47425;51.976;5.326;2023-07-29T02:20:20;6.45;;;3.20;;
61553;SDS011;47425;51.976;5.326;2023-07-29T02:22:49;1.52;;;1.10;;
61553;SDS011;47425;51.976;5.326;2023-07-29T02:25:16;1.38;;;1.25;;
61553;SDS011;47425;51.976;5.326;2023-07-29T02:27:46;5.78;;;3.78;;
61553;SDS011;47425;51.976;5.326;2023-07-29T02:30:12;2.30;;;1.20;;
61553;SDS011;47425;51.976;5.326;2023-07-29T02:32:40;3.45;;;1.92;;
61553;SDS011;47425;51.976;5.326;2023-07-29T02:35:08;1.20;;;1.10;;
61553;SDS011;47425;51.976;5.326;2023-07-29T02:37:35;2.67;;;1.30;;
61553;SDS011;47425;51.976;5.326;2023-07-29T02:40:04;1.92;;;1.40;;
61553;SDS011;47425;51.976;5.326;2023-07-29T02:44:59;4.07;;;2.38;;
61553;SDS011;47425;51.976;5.326;2023-07-29T02:47:27;2.28;;;1.08;;
61553;SDS011;47425;51.976;5.326;2023-07-29T02:49:55;6.90;;;2.75;;
61553;SDS011;47425;51.976;5.326;2023-07-29T02:52:23;4.07;;;2.63;;
61553;SDS011;47425;51.976;5.326;2023-07-29T02:54:50;1.58;;;1.20;;
61553;SDS011;47425;51.976;5.326;2023-07-29T02:57:18;2.55;;;1.15;;
61553;SDS011;47425;51.976;5.326;2023-07-29T02:59:46;5.53;;;2.63;;
61553;SDS011;47425;51.976;5.326;2023-07-29T03:02:13;2.65;;;1.70;;
61553;SDS011;47425;51.976;5.326;2023-07-29T03:04:41;1.77;;;1.10;;
61553;SDS011;47425;51.976;5.326;2023-07-29T03:07:09;3.63;;;2.38;;
61553;SDS011;47425;51.976;5.326;2023-07-29T03:09:37;4.05;;;2.20;;
61553;SDS011;47425;51.976;5.326;2023-07-29T03:12:08;1.52;;;1.00;;
61553;SDS011;47425;51.976;5.326;2023-07-29T03:14:35;2.80;;;1.10;;
61553;SDS011;47425;51.976;5.326;2023-07-29T03:17:03;2.88;;;1.23;;
61553;SDS011;47425;51.976;5.326;2023-07-29T03:19:32;3.33;;;1.40;;
61553;SDS011;47425;51.976;5.326;2023-07-29T03:22:02;4.57;;;1.95;;
61553;SDS011;47425;51.976;5.326;2023-07-29T03:24:30;2.97;;;1.35;;
61553;SDS011;47425;51.976;5.326;2023-07-29T03:27:00;3.08;;;1.63;;
61553;SDS011;47425;51.976;5.326;2023-07-29T03:29:36;2.72;;;1.20;;
61553;SDS011;47425;51.976;5.326;2023-07-29T03:32:03;2.85;;;1.00;;
61553;SDS011;47425;51.976;5.326;2023-07-29T03:34:30;1.63;;;1.20;;
61553;SDS011;47425;51.976;5.326;2023-07-29T03:37:02;1.20;;;1.10;;
61553;SDS011;47425;51.976;5.326;2023-07-29T03:39:50;2.70;;;1.30;;
61553;SDS011;47425;51.976;5.326;2023-07-29T03:42:21;1.80;;;1.25;;
61553;SDS011;47425;51.976;5.326;2023-07-29T03:44:53;2.85;;;1.10;;
61553;SDS011;47425;51.976;5.326;2023-07-29T03:47:20;1.65;;;1.00;;
61553;SDS011;47425;51.976;5.326;2023-07-29T03:49:51;2.80;;;1.40;;
61553;SDS011;47425;51.976;5.326;2023-07-29T03:52:20;2.35;;;1.50;;
61553;SDS011;47425;51.976;5.326;2023-07-29T03:54:48;2.15;;;1.48;;
61553;SDS011;47425;51.976;5.326;2023-07-29T03:57:16;2.20;;;1.10;;
61553;SDS011;47425;51.976;5.326;2023-07-29T03:59:43;1.15;;;0.90;;
61553;SDS011;47425;51.976;5.326;2023-07-29T04:02:11;2.60;;;0.88;;
61553;SDS011;47425;51.976;5.326;2023-07-29T04:04:39;1.58;;;0.80;;
61553;SDS011;47425;51.976;5.326;2023-07-29T04:07:08;1.77;;;1.10;;
61553;SDS011;47425;51.976;5.326;2023-07-29T04:09:34;2.88;;;1.60;;
61553;SDS011;47425;51.976;5.326;2023-07-29T04:12:06;2.08;;;1.10;;
61553;SDS011;47425;51.976;5.326;2023-07-29T04:14:35;2.38;;;1.08;;
61553;SDS011;47425;51.976;5.326;2023-07-29T04:17:02;6.20;;;1.33;;
61553;SDS011;47425;51.976;5.326;2023-07-29T04:19:29;1.30;;;1.20;;
61553;SDS011;47425;51.976;5.326;2023-07-29T04:21:57;5.07;;;2.25;;
61553;SDS011;47425;51.976;5.326;2023-07-29T04:24:27;3.08;;;1.98;;
61553;SDS011;47425;51.976;5.326;2023-07-29T04:26:54;4.45;;;2.25;;
61553;SDS011;47425;51.976;5.326;2023-07-29T04:29:21;2.60;;;2.08;;
61553;SDS011;47425;51.976;5.326;2023-07-29T04:31:50;3.03;;;1.87;;
61553;SDS011;47425;51.976;5.326;2023-07-29T04:34:18;1.35;;;1.25;;
61553;SDS011;47425;51.976;5.326;2023-07-29T04:36:45;4.57;;;1.88;;
61553;SDS011;47425;51.976;5.326;2023-07-29T04:39:17;2.45;;;1.77;;
61553;SDS011;47425;51.976;5.326;2023-07-29T04:41:44;1.65;;;1.10;;
61553;SDS011;47425;51.976;5.326;2023-07-29T04:44:14;3.38;;;1.63;;
61553;SDS011;47425;51.976;5.326;2023-07-29T04:46:42;1.60;;;1.15;;
61553;SDS011;47425;51.976;5.326;2023-07-29T04:49:12;0.88;;;0.80;;
61553;SDS011;47425;51.976;5.326;2023-07-29T04:51:39;1.33;;;1.23;;
61553;SDS011;47425;51.976;5.326;2023-07-29T04:54:05;9.43;;;3.83;;
61553;SDS011;47425;51.976;5.326;2023-07-29T04:56:35;3.35;;;1.60;;
61553;SDS011;47425;51.976;5.326;2023-07-29T04:59:05;2.88;;;1.10;;
61553;SDS011;47425;51.976;5.326;2023-07-29T05:01:34;3.40;;;2.00;;
61553;SDS011;47425;51.976;5.326;2023-07-29T05:04:05;2.58;;;1.42;;
61553;SDS011;47425;51.976;5.326;2023-07-29T05:09:12;1.58;;;1.08;;
61553;SDS011;47425;51.976;5.326;2023-07-29T05:14:10;1.88;;;1.13;;
61553;SDS011;47425;51.976;5.326;2023-07-29T05:16:37;1.02;;;0.93;;
61553;SDS011;47425;51.976;5.326;2023-07-29T05:19:07;4.28;;;2.03;;
61553;SDS011;47425;51.976;5.326;2023-07-29T05:21:40;1.48;;;0.90;;
61553;SDS011;47425;51.976;5.326;2023-07-29T05:24:07;2.33;;;1.50;;
61553;SDS011;47425;51.976;5.326;2023-07-29T05:26:40;2.92;;;2.15;;
61553;SDS011;47425;51.976;5.326;2023-07-29T05:29:14;3.85;;;1.27;;
61553;SDS011;47425;51.976;5.326;2023-07-29T05:31:47;2.55;;;0.90;;
61553;SDS011;47425;51.976;5.326;2023-07-29T05:34:17;1.25;;;1.13;;
61553;SDS011;47425;51.976;5.326;2023-07-29T05:36:45;1.70;;;1.27;;
61553;SDS011;47425;51.976;5.326;2023-07-29T05:39:18;2.83;;;1.25;;
61553;SDS011;47425;51.976;5.326;2023-07-29T05:41:46;5.22;;;2.35;;
61553;SDS011;47425;51.976;5.326;2023-07-29T05:44:19;3.35;;;2.38;;
61553;SDS011;47425;51.976;5.326;2023-07-29T05:46:46;2.58;;;1.38;;
61553;SDS011;47425;51.976;5.326;2023-07-29T05:49:15;2.78;;;1.55;;
61553;SDS011;47425;51.976;5.326;2023-07-29T05:51:46;1.35;;;1.25;;
61553;SDS011;47425;51.976;5.326;2023-07-29T05:54:14;6.72;;;3.97;;
61553;SDS011;47425;51.976;5.326;2023-07-29T05:56:41;2.30;;;1.20;;
61553;SDS011;47425;51.976;5.326;2023-07-29T06:01:36;2.63;;;1.25;;
61553;SDS011;47425;51.976;5.326;2023-07-29T06:04:03;3.13;;;1.88;;
61553;SDS011;47425;51.976;5.326;2023-07-29T06:06:33;5.35;;;2.72;;
61553;SDS011;47425;51.976;5.326;2023-07-29T06:09:05;2.28;;;1.42;;
61553;SDS011;47425;51.976;5.326;2023-07-29T06:11:32;4.03;;;1.98;;
61553;SDS011;47425;51.976;5.326;2023-07-29T06:13:59;5.45;;;2.10;;
61553;SDS011;47425;51.976;5.326;2023-07-29T06:16:25;5.68;;;3.90;;
61553;SDS011;47425;51.976;5.326;2023-07-29T06:18:52;2.58;;;1.90;;
61553;SDS011;47425;51.976;5.326;2023-07-29T06:21:19;3.05;;;1.42;;
61553;SDS011;47425;51.976;5.326;2023-07-29T06:23:46;4.03;;;1.98;;
61553;SDS011;47425;51.976;5.326;2023-07-29T06:26:14;1.48;;;1.33;;
61553;SDS011;47425;51.976;5.326;2023-07-29T06:28:42;1.88;;;1.35;;
61553;SDS011;47425;51.976;5.326;2023-07-29T06:31:09;4.75;;;2.97;;
61553;SDS011;47425;51.976;5.326;2023-07-29T06:33:40;2.70;;;1.38;;
61553;SDS011;47425;51.976;5.326;2023-07-29T06:36:07;5.22;;;3.80;;
61553;SDS011;47425;51.976;5.326;2023-07-29T06:38:38;1.83;;;1.30;;
61553;SDS011;47425;51.976;5.326;2023-07-29T06:41:04;1.55;;;1.27;;
61553;SDS011;47425;51.976;5.326;2023-07-29T06:43:32;2.35;;;1.50;;
61553;SDS011;47425;51.976;5.326;2023-07-29T06:46:00;6.68;;;4.65;;
61553;SDS011;47425;51.976;5.326;2023-07-29T06:48:29;4.40;;;2.58;;
61553;SDS011;47425;51.976;5.326;2023-07-29T06:50:56;5.85;;;3.28;;
61553;SDS011;47425;51.976;5.326;2023-07-29T06:53:25;5.30;;;3.80;;
61553;SDS011;47425;51.976;5.326;2023-07-29T06:55:52;1.60;;;1.40;;
61553;SDS011;47425;51.976;5.326;2023-07-29T06:58:20;2.60;;;1.48;;
61553;SDS011;47425;51.976;5.326;2023-07-29T07:00:54;3.25;;;1.55;;
61553;SDS011;47425;51.976;5.326;2023-07-29T07:03:22;5.93;;;4.30;;
61553;SDS011;47425;51.976;5.326;2023-07-29T07:05:49;3.10;;;1.33;;
61553;SDS011;47425;51.976;5.326;2023-07-29T07:08:16;3.05;;;2.67;;
61553;SDS011;47425;51.976;5.326;2023-07-29T07:10:46;3.72;;;2.63;;
61553;SDS011;47425;51.976;5.326;2023-07-29T07:13:22;6.97;;;4.28;;
61553;SDS011;47425;51.976;5.326;2023-07-29T07:15:49;11.05;;;2.45;;
61553;SDS011;47425;51.976;5.326;2023-07-29T07:18:17;5.07;;;3.30;;
61553;SDS011;47425;51.976;5.326;2023-07-29T07:20:50;4.13;;;2.85;;
61553;SDS011;47425;51.976;5.326;2023-07-29T07:23:19;6.35;;;3.03;;
61553;SDS011;47425;51.976;5.326;2023-07-29T07:25:47;10.23;;;3.15;;
61553;SDS011;47425;51.976;5.326;2023-07-29T07:28:14;13.25;;;2.85;;
61553;SDS011;47425;51.976;5.326;2023-07-29T07:30:40;14.63;;;4.43;;
61553;SDS011;47425;51.976;5.326;2023-07-29T07:33:07;17.98;;;3.22;;
61553;SDS011;47425;51.976;5.326;2023-07-29T07:35:35;18.20;;;4.22;;
61553;SDS011;47425;51.976;5.326;2023-07-29T07:38:03;9.98;;;3.75;;
61553;SDS011;47425;51.976;5.326;2023-07-29T07:40:33;13.02;;;3.60;;
61553;SDS011;47425;51.976;5.326;2023-07-29T07:42:59;12.32;;;3.95;;
61553;SDS011;47425;51.976;5.326;2023-07-29T07:45:29;11.75;;;3.38;;
61553;SDS011;47425;51.976;5.326;2023-07-29T07:47:58;8.38;;;3.78;;
61553;SDS011;47425;51.976;5.326;2023-07-29T07:50:28;5.63;;;2.92;;
61553;SDS011;47425;51.976;5.326;2023-07-29T07:52:59;16.73;;;4.13;;
61553;SDS011;47425;51.976;5.326;2023-07-29T07:55:28;7.45;;;3.05;;
61553;SDS011;47425;51.976;5.326;2023-07-29T07:57:58;7.78;;;2.80;;
61553;SDS011;47425;51.976;5.326;2023-07-29T08:00:24;5.00;;;2.35;;
61553;SDS011;47425;51.976;5.326;2023-07-29T08:02:56;6.93;;;2.60;;
61553;SDS011;47425;51.976;5.326;2023-07-29T08:05:26;7.10;;;2.45;;
61553;SDS011;47425;51.976;5.326;2023-07-29T08:07:53;8.68;;;3.33;;
61553;SDS011;47425;51.976;5.326;2023-07-29T08:10:21;5.22;;;2.20;;
61553;SDS011;47425;51.976;5.326;2023-07-29T08:15:14;3.95;;;2.35;;
61553;SDS011;47425;51.976;5.326;2023-07-29T08:17:42;3.70;;;2.10;;
61553;SDS011;47425;51.976;5.326;2023-07-29T08:20:09;5.25;;;2.22;;
61553;SDS011;47425;51.976;5.326;2023-07-29T08:22:38;4.10;;;2.15;;
61553;SDS011;47425;51.976;5.326;2023-07-29T08:25:05;5.63;;;1.85;;
61553;SDS011;47425;51.976;5.326;2023-07-29T08:27:34;4.68;;;2.15;;
61553;SDS011;47425;51.976;5.326;2023-07-29T08:30:02;5.25;;;1.88;;
61553;SDS011;47425;51.976;5.326;2023-07-29T08:32:29;7.32;;;1.80;;
61553;SDS011;47425;51.976;5.326;2023-07-29T08:34:56;5.85;;;2.63;;
61553;SDS011;47425;51.976;5.326;2023-07-29T08:37:25;6.10;;;1.95;;
61553;SDS011;47425;51.976;5.326;2023-07-29T08:39:53;4.38;;;1.90;;
61553;SDS011;47425;51.976;5.326;2023-07-29T08:42:21;5.45;;;2.33;;
61553;SDS011;47425;51.976;5.326;2023-07-29T08:44:52;3.25;;;2.10;;
61553;SDS011;47425;51.976;5.326;2023-07-29T08:47:20;4.53;;;1.67;;
61553;SDS011;47425;51.976;5.326;2023-07-29T08:49:48;2.85;;;1.65;;
61553;SDS011;47425;51.976;5.326;2023-07-29T08:52:18;4.68;;;1.70;;
61553;SDS011;47425;51.976;5.326;2023-07-29T08:57:15;4.03;;;1.85;;
61553;SDS011;47425;51.976;5.326;2023-07-29T08:59:45;1.98;;;1.77;;
61553;SDS011;47425;51.976;5.326;2023-07-29T09:02:13;5.28;;;2.08;;
61553;SDS011;47425;51.976;5.326;2023-07-29T09:07:08;6.15;;;2.38;;
61553;SDS011;47425;51.976;5.326;2023-07-29T09:09:37;4.10;;;2.33;;
61553;SDS011;47425;51.976;5.326;2023-07-29T09:12:04;2.38;;;2.00;;
61553;SDS011;47425;51.976;5.326;2023-07-29T09:14:34;3.83;;;1.77;;
61553;SDS011;47425;51.976;5.326;2023-07-29T09:17:01;1.50;;;1.40;;
61553;SDS011;47425;51.976;5.326;2023-07-29T09:19:32;4.65;;;1.50;;
61553;SDS011;47425;51.976;5.326;2023-07-29T09:22:00;1.98;;;1.30;;
61553;SDS011;47425;51.976;5.326;2023-07-29T09:24:27;5.03;;;1.58;;
61553;SDS011;47425;51.976;5.326;2023-07-29T09:26:55;2.67;;;1.67;;
61553;SDS011;47425;51.976;5.326;2023-07-29T09:29:28;5.18;;;2.53;;
61553;SDS011;47425;51.976;5.326;2023-07-29T09:32:01;2.50;;;1.50;;
61553;SDS011;47425;51.976;5.326;2023-07-29T09:34:48;2.38;;;1.58;;
61553;SDS011;47425;51.976;5.326;2023-07-29T09:37:20;2.22;;;1.20;;
61553;SDS011;47425;51.976;5.326;2023-07-29T09:39:51;1.75;;;1.33;;
61553;SDS011;47425;51.976;5.326;2023-07-29T09:42:18;3.00;;;1.40;;
61553;SDS011;47425;51.976;5.326;2023-07-29T09:44:45;2.13;;;1.60;;
61553;SDS011;47425;51.976;5.326;2023-07-29T09:47:20;3.70;;;1.50;;
61553;SDS011;47425;51.976;5.326;2023-07-29T09:49:50;2.45;;;1.33;;
61553;SDS011;47425;51.976;5.326;2023-07-29T09:52:18;1.85;;;1.63;;
61553;SDS011;47425;51.976;5.326;2023-07-29T09:54:47;1.92;;;1.40;;
61553;SDS011;47425;51.976;5.326;2023-07-29T09:57:14;3.15;;;1.60;;
61553;SDS011;47425;51.976;5.326;2023-07-29T09:59:43;5.15;;;2.13;;
61553;SDS011;47425;51.976;5.326;2023-07-29T10:02:13;3.30;;;2.40;;
61553;SDS011;47425;51.976;5.326;2023-07-29T10:04:43;3.08;;;1.73;;
61553;SDS011;47425;51.976;5.326;2023-07-29T10:07:15;2.28;;;1.65;;
61553;SDS011;47425;51.976;5.326;2023-07-29T10:09:42;2.28;;;1.70;;
61553;SDS011;47425;51.976;5.326;2023-07-29T10:12:11;2.75;;;1.73;;
61553;SDS011;47425;51.976;5.326;2023-07-29T10:14:42;1.85;;;1.60;;
61553;SDS011;47425;51.976;5.326;2023-07-29T10:17:15;2.05;;;1.60;;
61553;SDS011;47425;51.976;5.326;2023-07-29T10:19:42;1.90;;;1.35;;
61553;SDS011;47425;51.976;5.326;2023-07-29T10:22:24;3.60;;;1.60;;
61553;SDS011;47425;51.976;5.326;2023-07-29T10:24:56;2.05;;;1.35;;
61553;SDS011;47425;51.976;5.326;2023-07-29T10:27:31;2.92;;;1.45;;
61553;SDS011;47425;51.976;5.326;2023-07-29T10:30:11;2.42;;;1.20;;
61553;SDS011;47425;51.976;5.326;2023-07-29T10:32:45;2.17;;;1.40;;
61553;SDS011;47425;51.976;5.326;2023-07-29T10:35:17;1.02;;;0.95;;
61553;SDS011;47425;51.976;5.326;2023-07-29T10:37:46;1.98;;;1.33;;
61553;SDS011;47425;51.976;5.326;2023-07-29T10:40:16;2.45;;;1.15;;
61553;SDS011;47425;51.976;5.326;2023-07-29T10:42:58;1.77;;;1.35;;
61553;SDS011;47425;51.976;5.326;2023-07-29T10:45:36;2.67;;;1.23;;
61553;SDS011;47425;51.976;5.326;2023-07-29T10:48:05;2.08;;;1.10;;
61553;SDS011;47425;51.976;5.326;2023-07-29T10:50:33;1.58;;;1.30;;
61553;SDS011;47425;51.976;5.326;2023-07-29T10:53:01;1.23;;;1.13;;
61553;SDS011;47425;51.976;5.326;2023-07-29T10:55:29;2.55;;;1.38;;
61553;SDS011;47425;51.976;5.326;2023-07-29T10:58:08;1.55;;;0.98;;
61553;SDS011;47425;51.976;5.326;2023-07-29T11:00:41;1.38;;;1.00;;
61553;SDS011;47425;51.976;5.326;2023-07-29T11:03:08;2.08;;;1.20;;
61553;SDS011;47425;51.976;5.326;2023-07-29T11:05:46;1.20;;;1.10;;
61553;SDS011;47425;51.976;5.326;2023-07-29T11:08:22;3.50;;;1.85;;
61553;SDS011;47425;51.976;5.326;2023-07-29T11:11:03;2.35;;;1.60;;
61553;SDS011;47425;51.976;5.326;2023-07-29T11:13:35;3.95;;;2.08;;
61553;SDS011;47425;51.976;5.326;2023-07-29T11:16:03;2.15;;;1.83;;
61553;SDS011;47425;51.976;5.326;2023-07-29T11:18:31;1.55;;;1.00;;
61553;SDS011;47425;51.976;5.326;2023-07-29T11:21:00;1.67;;;1.58;;
61553;SDS011;47425;51.976;5.326;2023-07-29T11:23:34;4.13;;;2.47;;
61553;SDS011;47425;51.976;5.326;2023-07-29T11:26:03;1.00;;;1.00;;
61553;SDS011;47425;51.976;5.326;2023-07-29T11:28:31;1.98;;;1.40;;
61553;SDS011;47425;51.976;5.326;2023-07-29T11:31:03;2.20;;;1.95;;
61553;SDS011;47425;51.976;5.326;2023-07-29T11:33:31;3.22;;;1.20;;
61553;SDS011;47425;51.976;5.326;2023-07-29T11:36:03;4.15;;;2.10;;
61553;SDS011;47425;51.976;5.326;2023-07-29T11:38:31;5.47;;;2.17;;
61553;SDS011;47425;51.976;5.326;2023-07-29T11:41:05;5.25;;;2.42;;
61553;SDS011;47425;51.976;5.326;2023-07-29T11:43:34;3.97;;;1.63;;
61553;SDS011;47425;51.976;5.326;2023-07-29T11:46:01;2.83;;;1.85;;
61553;SDS011;47425;51.976;5.326;2023-07-29T11:48:31;1.20;;;1.00;;
61553;SDS011;47425;51.976;5.326;2023-07-29T11:50:59;3.53;;;1.27;;
61553;SDS011;47425;51.976;5.326;2023-07-29T11:53:29;1.38;;;1.05;;
61553;SDS011;47425;51.976;5.326;2023-07-29T11:55:58;1.20;;;1.00;;
61553;SDS011;47425;51.976;5.326;2023-07-29T11:58:25;2.15;;;1.42;;
61553;SDS011;47425;51.976;5.326;2023-07-29T12:00:52;2.55;;;1.00;;
61553;SDS011;47425;51.976;5.326;2023-07-29T12:05:48;4.07;;;3.13;;
61553;SDS011;47425;51.976;5.326;2023-07-29T12:08:15;3.95;;;2.88;;
61553;SDS011;47425;51.976;5.326;2023-07-29T12:10:42;8.43;;;2.90;;
61553;SDS011;47425;51.976;5.326;2023-07-29T12:13:13;2.83;;;1.83;;
61553;SDS011;47425;51.976;5.326;2023-07-29T12:15:40;1.60;;;1.50;;
61553;SDS011;47425;51.976;5.326;2023-07-29T12:20:36;1.20;;;1.15;;
61553;SDS011;47425;51.976;5.326;2023-07-29T12:23:03;3.22;;;2.25;;
61553;SDS011;47425;51.976;5.326;2023-07-29T12:25:33;2.72;;;1.95;;
61553;SDS011;47425;51.976;5.326;2023-07-29T12:28:04;1.42;;;1.08;;
61553;SDS011;47425;51.976;5.326;2023-07-29T12:30:40;1.63;;;1.50;;
61553;SDS011;47425;51.976;5.326;2023-07-29T12:33:11;1.73;;;1.10;;
61553;SDS011;47425;51.976;5.326;2023-07-29T12:35:37;1.30;;;1.10;;
61553;SDS011;47425;51.976;5.326;2023-07-29T12:38:04;1.00;;;0.90;;
61553;SDS011;47425;51.976;5.326;2023-07-29T12:40:31;0.90;;;0.90;;
61553;SDS011;47425;51.976;5.326;2023-07-29T12:42:59;1.35;;;1.17;;
61553;SDS011;47425;51.976;5.326;2023-07-29T12:45:28;2.28;;;1.33;;
61553;SDS011;47425;51.976;5.326;2023-07-29T12:48:05;1.40;;;1.30;;
61553;SDS011;47425;51.976;5.326;2023-07-29T12:50:31;1.33;;;1.05;;
61553;SDS011;47425;51.976;5.326;2023-07-29T12:52:58;2.65;;;0.90;;
61553;SDS011;47425;51.976;5.326;2023-07-29T12:55:29;3.33;;;1.40;;
61553;SDS011;47425;51.976;5.326;2023-07-29T12:58:00;1.33;;;1.23;;
61553;SDS011;47425;51.976;5.326;2023-07-29T13:00:30;1.55;;;1.13;;
61553;SDS011;47425;51.976;5.326;2023-07-29T13:03:01;1.85;;;1.20;;
61553;SDS011;47425;51.976;5.326;2023-07-29T13:05:30;1.33;;;1.20;;
61553;SDS011;47425;51.976;5.326;2023-07-29T13:07:57;2.03;;;1.20;;
61553;SDS011;47425;51.976;5.326;2023-07-29T13:10:25;2.97;;;0.95;;
61553;SDS011;47425;51.976;5.326;2023-07-29T13:12:52;3.30;;;2.15;;
61553;SDS011;47425;51.976;5.326;2023-07-29T13:15:19;2.75;;;1.35;;
61553;SDS011;47425;51.976;5.326;2023-07-29T13:17:45;2.15;;;1.00;;
61553;SDS011;47425;51.976;5.326;2023-07-29T13:20:13;3.72;;;1.20;;
61553;SDS011;47425;51.976;5.326;2023-07-29T13:23:01;2.20;;;2.00;;
61553;SDS011;47425;51.976;5.326;2023-07-29T13:25:28;2.38;;;1.67;;
61553;SDS011;47425;51.976;5.326;2023-07-29T13:27:55;4.00;;;1.05;;
61553;SDS011;47425;51.976;5.326;2023-07-29T13:30:21;3.83;;;1.95;;
61553;SDS011;47425;51.976;5.326;2023-07-29T13:32:48;1.40;;;1.10;;
61553;SDS011;47425;51.976;5.326;2023-07-29T13:35:18;2.03;;;1.70;;
61553;SDS011;47425;51.976;5.326;2023-07-29T13:37:46;1.73;;;1.50;;
61553;SDS011;47425;51.976;5.326;2023-07-29T13:40:13;2.15;;;0.90;;
61553;SDS011;47425;51.976;5.326;2023-07-29T13:42:40;2.08;;;1.77;;
61553;SDS011;47425;51.976;5.326;2023-07-29T13:45:07;2.38;;;1.20;;
61553;SDS011;47425;51.976;5.326;2023-07-29T13:47:34;3.80;;;1.10;;
61553;SDS011;47425;51.976;5.326;2023-07-29T13:50:02;2.17;;;1.48;;
61553;SDS011;47425;51.976;5.326;2023-07-29T13:52:31;2.30;;;1.63;;
61553;SDS011;47425;51.976;5.326;2023-07-29T13:55:00;1.60;;;1.00;;
61553;SDS011;47425;51.976;5.326;2023-07-29T13:57:26;1.40;;;1.20;;
61553;SDS011;47425;51.976;5.326;2023-07-29T13:59:53;1.45;;;1.35;;
61553;SDS011;47425;51.976;5.326;2023-07-29T14:02:21;2.30;;;1.52;;
61553;SDS011;47425;51.976;5.326;2023-07-29T14:04:48;2.03;;;1.50;;
61553;SDS011;47425;51.976;5.326;2023-07-29T14:07:14;2.33;;;1.27;;
61553;SDS011;47425;51.976;5.326;2023-07-29T14:09:42;2.08;;;1.75;;
61553;SDS011;47425;51.976;5.326;2023-07-29T14:12:09;1.65;;;1.05;;
61553;SDS011;47425;51.976;5.326;2023-07-29T14:14:42;2.50;;;1.50;;
61553;SDS011;47425;51.976;5.326;2023-07-29T14:17:09;1.13;;;0.93;;
61553;SDS011;47425;51.976;5.326;2023-07-29T14:19:36;2.38;;;1.83;;
61553;SDS011;47425;51.976;5.326;2023-07-29T14:22:02;3.72;;;1.48;;
61553;SDS011;47425;51.976;5.326;2023-07-29T14:24:29;2.92;;;1.40;;
61553;SDS011;47425;51.976;5.326;2023-07-29T14:27:01;3.78;;;1.50;;
61553;SDS011;47425;51.976;5.326;2023-07-29T14:29:32;2.08;;;1.10;;
61553;SDS011;47425;51.976;5.326;2023-07-29T14:31:59;1.92;;;1.25;;
61553;SDS011;47425;51.976;5.326;2023-07-29T14:34:25;3.40;;;1.35;;
61553;SDS011;47425;51.976;5.326;2023-07-29T14:36:53;1.35;;;1.25;;
61553;SDS011;47425;51.976;5.326;2023-07-29T14:39:20;2.80;;;0.90;;
61553;SDS011;47425;51.976;5.326;2023-07-29T14:41:49;1.50;;;1.10;;
61553;SDS011;47425;51.976;5.326;2023-07-29T14:44:17;0.80;;;0.80;;
61553;SDS011;47425;51.976;5.326;2023-07-29T14:46:47;1.83;;;1.20;;
61553;SDS011;47425;51.976;5.326;2023-07-29T14:49:13;1.73;;;0.95;;
61553;SDS011;47425;51.976;5.326;2023-07-29T14:51:41;1.27;;;0.90;;
61553;SDS011;47425;51.976;5.326;2023-07-29T14:54:10;3.53;;;1.40;;
61553;SDS011;47425;51.976;5.326;2023-07-29T14:56:37;1.75;;;1.00;;
61553;SDS011;47425;51.976;5.326;2023-07-29T14:59:03;2.42;;;1.17;;
61553;SDS011;47425;51.976;5.326;2023-07-29T15:01:32;2.03;;;1.17;;
61553;SDS011;47425;51.976;5.326;2023-07-29T15:03:59;1.10;;;0.90;;
61553;SDS011;47425;51.976;5.326;2023-07-29T15:06:28;2.15;;;1.10;;
61553;SDS011;47425;51.976;5.326;2023-07-29T15:08:55;3.28;;;1.00;;
61553;SDS011;47425;51.976;5.326;2023-07-29T15:11:22;0.70;;;0.70;;
61553;SDS011;47425;51.976;5.326;2023-07-29T15:13:48;1.92;;;0.95;;
61553;SDS011;47425;51.976;5.326;2023-07-29T15:16:16;1.25;;;1.15;;
61553;SDS011;47425;51.976;5.326;2023-07-29T15:18:48;0.95;;;0.90;;
61553;SDS011;47425;51.976;5.326;2023-07-29T15:21:17;2.05;;;1.00;;
61553;SDS011;47425;51.976;5.326;2023-07-29T15:23:43;4.93;;;3.90;;